ADDS METAR Data INFO
IDs: Format: Raw Decoded Include TAF

Data at: 1811 UTC 18 Feb 2018

KEED 181756Z AUTO 10006KT 10SM CLR 19/M02 A2989 RMK AO2 SLP106 T01941017 10200 20089 58006 $
KEED 181656Z AUTO 07004KT 10SM CLR 17/M02 A2991 RMK AO2 SLP111 T01671022 $
KEED 181556Z AUTO 36003KT 10SM CLR 13/M03 A2991 RMK AO2 SLP115 T01331033 $
KEED 181456Z AUTO 25007KT 10SM CLR 11/M03 A2991 RMK AO2 SLP115 T01061033 58006 $
KEED 181356Z AUTO 00000KT 10SM CLR 10/M04 A2992 RMK AO2 SLP118 T01001039 $
KEED 181256Z AUTO 33004KT 10SM CLR 11/M04 A2993 RMK AO2 SLP120 T01061044 $
KEED 181156Z AUTO 25007KT 10SM CLR 12/M04 A2993 RMK AO2 SLP118 T01171039 10161 20111 $
KEED 181056Z AUTO 32004KT 10SM CLR 12/M04 A2995 RMK AO2 SLP125 T01171044
KEED 180956Z AUTO 19003KT 10SM CLR 15/M04 A2996 RMK AO2 SLP126 T01501039
KEED 180856Z AUTO 24011KT 10SM CLR 15/M04 A2997 RMK AO2 SLP132 T01501039 56008
KEED 180756Z AUTO 25011KT 10SM CLR 15/M04 A2997 RMK AO2 SLP134 T01501044 402280056
KEED 180656Z AUTO 23003KT 10SM CLR 15/M04 A2998 RMK AO2 SLP137 T01501039
KEED 180556Z AUTO 00000KT 10SM CLR 14/M04 A2999 RMK AO2 SLP143 T01441044 10228 20144 58013
KEED 180456Z AUTO 25008KT 10SM CLR 17/M05 A3001 RMK AO2 SLP147 T01671050
KEED 180356Z AUTO 24007KT 10SM CLR 17/M07 A3002 RMK AO2 SLP152 T01671072
KEED 180256Z AUTO 24008KT 10SM CLR 17/M07 A3003 RMK AO2 SLP159 T01721067 55005
KEED 180156Z AUTO 16003KT 10SM CLR 19/M06 A3003 RMK AO2 SLP158 T01941056
KEED 180056Z AUTO 13003KT 10SM CLR 22/M06 A3004 RMK AO2 SLP158 T02171061
KEED 172356Z AUTO 08004KT 10SM CLR 23/M07 A3005 RMK AO2 SLP161 T02281072 10228 20156 56026
KEED 172256Z AUTO 10003KT 10SM CLR 23/M08 A3007 RMK AO2 SLP166 T02281078
KEED 172156Z AUTO 00000KT 10SM CLR 22/M08 A3010 RMK AO2 SLP177 T02171078
KEED 172056Z AUTO 00000KT 10SM CLR 20/M07 A3013 RMK AO2 SLP188 T02001072 58032
KEED 171956Z AUTO 03004KT 10SM CLR 19/M08 A3017 RMK AO2 SLP201 T01941078
KEED 171856Z AUTO 00000KT 10SM CLR 17/M07 A3020 RMK AO2 SLP214 T01721072
KEED 171756Z AUTO 03008KT 10SM CLR 16/M06 A3022 RMK AO2 SLP222 T01561061 10156 20056 51011
KEED 171656Z AUTO 34006KT 10SM CLR 14/M08 A3022 RMK AO2 SLP219 T01441083
KEED 171556Z AUTO 00000KT 10SM CLR 13/M08 A3021 RMK AO2 SLP218 T01281078
KEED 171456Z AUTO 23004KT 10SM CLR 07/M10 A3019 RMK AO2 SLP214 T00671100 53010
KEED 171356Z AUTO 00000KT 10SM CLR 07/M10 A3017 RMK AO2 SLP207 T00671100
KEED 171256Z AUTO 24007KT 10SM CLR 07/M11 A3015 RMK AO2 SLP199 T00721106
KEED 171156Z AUTO 32003KT 10SM CLR 07/M10 A3016 RMK AO2 SLP200 T00721100 10117 20072 58001
KEED 171056Z AUTO 25006KT 10SM CLR 08/M11 A3017 RMK AO2 SLP203 T00831111
KEED 170956Z AUTO 00000KT 10SM CLR 08/M11 A3017 RMK AO2 SLP204 T00831111
KEED 170856Z AUTO 31007KT 10SM CLR 10/M11 A3016 RMK AO2 SLP201 T01001111 53003
KEED 170756Z AUTO 26007KT 10SM CLR 10/M11 A3015 RMK AO2 SLP200 T01001111 402060100
KEED 170656Z AUTO 24009KT 10SM CLR 10/M11 A3016 RMK AO2 SLP200 T01001106